createdAt,value
2022-11-14T00:01:28.769Z,31.50
2022-11-14T00:03:55.630Z,31.90
2022-11-14T00:06:22.492Z,30.77
2022-11-14T00:08:49.313Z,29.87
2022-11-14T00:11:16.243Z,33.20
2022-11-14T00:13:47.750Z,28.73
2022-11-14T00:16:16.880Z,31.50
2022-11-14T00:18:43.711Z,30.60
2022-11-14T00:21:10.580Z,31.13
2022-11-14T00:23:39.905Z,31.47
2022-11-14T00:26:09.311Z,31.50
2022-11-14T00:28:36.236Z,29.80
2022-11-14T00:31:06.123Z,29.23
2022-11-14T00:33:33.079Z,30.30
2022-11-14T00:35:59.916Z,31.63
2022-11-14T00:38:26.947Z,32.53
2022-11-14T00:40:54.058Z,31.57
2022-11-14T00:43:22.999Z,33.00
2022-11-14T00:45:50.109Z,31.13
2022-11-14T00:48:21.586Z,32.40
2022-11-14T00:50:50.634Z,32.97
2022-11-14T00:53:17.530Z,30.37
2022-11-14T00:55:44.471Z,32.33
2022-11-14T00:58:11.392Z,30.50
2022-11-14T01:00:39.046Z,32.03
2022-11-14T01:03:10.988Z,31.83
2022-11-14T01:05:47.681Z,31.83
2022-11-14T01:08:16.552Z,31.73
2022-11-14T01:10:47.814Z,31.37
2022-11-14T01:13:16.631Z,32.30
2022-11-14T01:15:46.981Z,32.37
2022-11-14T01:18:18.930Z,34.27
2022-11-14T01:20:48.170Z,32.87
2022-11-14T01:23:16.524Z,32.80
2022-11-14T01:25:44.134Z,32.40
2022-11-14T01:28:17.516Z,33.10
2022-11-14T01:30:44.948Z,31.13
2022-11-14T01:33:11.835Z,31.57
2022-11-14T01:35:39.246Z,33.53
2022-11-14T01:38:06.666Z,31.87
2022-11-14T01:40:34.493Z,31.93
2022-11-14T01:43:16.646Z,32.47
2022-11-14T01:45:55.029Z,30.37
2022-11-14T01:48:34.442Z,34.37
2022-11-14T01:51:11.488Z,33.87
2022-11-14T01:53:38.584Z,33.00
2022-11-14T01:56:10.013Z,31.60
2022-11-14T01:58:41.596Z,34.07
2022-11-14T02:01:08.474Z,31.30
2022-11-14T02:03:39.528Z,34.33
2022-11-14T02:06:12.699Z,33.30
2022-11-14T02:08:42.839Z,32.57
2022-11-14T02:11:17.832Z,32.27
2022-11-14T02:13:44.764Z,32.87
2022-11-14T02:16:14.308Z,34.63
2022-11-14T02:18:41.184Z,34.50
2022-11-14T02:21:10.161Z,35.37
2022-11-14T02:23:41.515Z,33.83
2022-11-14T02:26:08.392Z,32.90
2022-11-14T02:28:37.787Z,33.93
2022-11-14T02:31:07.139Z,33.67
2022-11-14T02:33:33.993Z,34.37
2022-11-14T02:36:00.824Z,35.17
2022-11-14T02:38:28.030Z,34.90
2022-11-14T02:40:55.161Z,35.40
2022-11-14T02:43:22.007Z,36.00
2022-11-14T02:45:48.887Z,36.20
2022-11-14T02:48:15.824Z,34.17
2022-11-14T02:50:43.262Z,34.00
2022-11-14T02:53:10.174Z,35.80
2022-11-14T02:55:41.593Z,35.53
2022-11-14T02:58:08.550Z,34.50
2022-11-14T03:00:38.486Z,34.93
2022-11-14T03:03:11.356Z,33.03
2022-11-14T03:05:40.520Z,37.07
2022-11-14T03:08:14.445Z,34.47
2022-11-14T03:10:46.125Z,34.83
2022-11-14T03:13:17.333Z,35.33
2022-11-14T03:15:44.247Z,34.80
2022-11-14T03:18:13.763Z,35.97
2022-11-14T03:20:40.906Z,33.90
2022-11-14T03:23:10.716Z,35.60
2022-11-14T03:25:39.892Z,32.87
2022-11-14T03:28:11.382Z,34.80
2022-11-14T03:30:38.231Z,35.87
2022-11-14T03:33:05.077Z,36.30
2022-11-14T03:35:31.928Z,32.83
2022-11-14T03:38:00.894Z,34.73
2022-11-14T03:40:27.816Z,34.53
2022-11-14T03:42:54.679Z,36.13
2022-11-14T03:45:21.567Z,34.70
2022-11-14T03:47:48.388Z,35.80
2022-11-14T03:50:15.260Z,34.47
2022-11-14T03:52:42.145Z,34.97
2022-11-14T03:55:09.154Z,33.83
2022-11-14T03:57:38.993Z,34.87
2022-11-14T04:00:09.545Z,34.37
2022-11-14T04:02:39.485Z,35.17
2022-11-14T04:05:07.034Z,35.00
2022-11-14T04:07:33.964Z,35.13
2022-11-14T04:10:02.992Z,35.07
2022-11-14T04:12:31.972Z,34.30
2022-11-14T04:14:58.796Z,35.93
2022-11-14T04:17:27.953Z,35.23
2022-11-14T04:19:57.831Z,36.17
2022-11-14T04:22:26.892Z,36.53
2022-11-14T04:24:53.733Z,34.37
2022-11-14T04:27:27.695Z,36.17
2022-11-14T04:29:56.792Z,36.00
2022-11-14T04:32:26.171Z,35.90
2022-11-14T04:34:56.446Z,35.97
2022-11-14T04:37:25.573Z,36.60
2022-11-14T04:39:58.544Z,36.00
2022-11-14T04:42:28.180Z,38.67
2022-11-14T04:44:55.126Z,37.60
2022-11-14T04:47:22.055Z,35.37
2022-11-14T04:49:51.263Z,37.50
2022-11-14T04:52:22.879Z,37.00
2022-11-14T04:54:49.752Z,37.50
2022-11-14T04:57:17.838Z,37.57
2022-11-14T04:59:44.751Z,36.67
2022-11-14T05:02:13.947Z,37.00
2022-11-14T05:04:44.424Z,36.97
2022-11-14T05:07:11.751Z,36.90
2022-11-14T05:09:38.673Z,37.47
2022-11-14T05:12:08.301Z,38.00
2022-11-14T05:14:38.619Z,37.33
2022-11-14T05:17:07.800Z,37.17
2022-11-14T05:19:34.696Z,36.40
2022-11-14T05:22:06.256Z,38.17
2022-11-14T05:24:35.630Z,36.37
2022-11-14T05:27:02.568Z,37.47
2022-11-14T05:29:31.895Z,37.10
2022-11-14T05:32:01.267Z,37.93
2022-11-14T05:34:28.250Z,39.07
2022-11-14T05:36:57.648Z,38.30
2022-11-14T05:39:24.544Z,38.60
2022-11-14T05:41:51.425Z,38.40
2022-11-14T05:44:22.829Z,38.33
2022-11-14T05:46:49.723Z,38.97
2022-11-14T05:49:20.734Z,38.80
2022-11-14T05:51:51.366Z,38.40
2022-11-14T05:54:18.230Z,39.07
2022-11-14T05:56:47.661Z,39.40
2022-11-14T05:59:14.486Z,40.13
2022-11-14T06:01:41.461Z,42.57
2022-11-14T06:04:17.959Z,40.87
2022-11-14T06:06:49.630Z,39.73
2022-11-14T06:09:16.523Z,42.80
2022-11-14T06:11:43.437Z,41.03
2022-11-14T06:14:11.270Z,43.33
2022-11-14T06:16:41.323Z,40.47
2022-11-14T06:19:08.177Z,40.50
2022-11-14T06:21:35.047Z,38.90
2022-11-14T06:24:02.050Z,40.20
2022-11-14T06:26:31.359Z,44.97
2022-11-14T06:29:01.433Z,41.00
2022-11-14T06:31:30.641Z,38.60
2022-11-14T06:33:57.458Z,40.83
2022-11-14T06:36:26.962Z,38.53
2022-11-14T06:38:56.316Z,41.60
2022-11-14T06:41:28.324Z,40.47
2022-11-14T06:43:55.334Z,37.53
2022-11-14T06:46:23.818Z,34.80
2022-11-14T06:48:52.551Z,38.10
2022-11-14T06:51:22.017Z,36.07
2022-11-14T06:53:48.965Z,40.10
2022-11-14T06:56:21.898Z,40.03
2022-11-14T06:58:52.115Z,37.87
2022-11-14T07:01:27.340Z,37.67
2022-11-14T07:03:54.378Z,36.73
2022-11-14T07:06:24.890Z,37.27
2022-11-14T07:08:56.208Z,35.00
2022-11-14T07:11:33.198Z,35.77
2022-11-14T07:14:03.461Z,37.10
2022-11-14T07:16:36.820Z,34.93
2022-11-14T07:19:11.074Z,37.07
2022-11-14T07:21:38.814Z,37.33
2022-11-14T07:24:06.153Z,36.97
2022-11-14T07:26:35.318Z,35.70
2022-11-14T07:29:03.060Z,39.10
2022-11-14T07:31:32.343Z,38.70
2022-11-14T07:33:59.463Z,35.33
2022-11-14T07:36:26.342Z,37.83
2022-11-14T07:38:55.391Z,35.40
2022-11-14T07:41:25.062Z,38.30
2022-11-14T07:43:51.992Z,36.37
2022-11-14T07:46:21.384Z,35.50
2022-11-14T07:48:48.203Z,36.60
2022-11-14T07:51:20.235Z,36.03
2022-11-14T07:53:49.621Z,35.43
2022-11-14T07:56:20.228Z,36.83
2022-11-14T07:58:50.098Z,36.07
2022-11-14T08:01:16.947Z,34.37
2022-11-14T08:03:46.111Z,37.57
2022-11-14T08:06:19.438Z,38.53
2022-11-14T08:08:46.329Z,36.67
2022-11-14T08:11:36.431Z,36.37
2022-11-14T08:14:05.468Z,35.00
2022-11-14T08:16:32.369Z,36.37
2022-11-14T08:19:04.696Z,33.63
2022-11-14T08:21:31.534Z,35.30
2022-11-14T08:24:00.912Z,35.60
2022-11-14T08:26:31.535Z,36.03
2022-11-14T08:29:01.292Z,34.20
2022-11-14T08:31:28.617Z,33.40
2022-11-14T08:33:55.566Z,34.37
2022-11-14T08:36:25.560Z,33.57
2022-11-14T08:39:00.534Z,35.63
2022-11-14T08:41:31.312Z,32.73
2022-11-14T08:44:02.766Z,34.47
2022-11-14T08:46:29.752Z,35.13
2022-11-14T08:48:56.665Z,35.80
2022-11-14T08:51:23.642Z,34.40
2022-11-14T08:53:53.600Z,33.20
2022-11-14T08:56:20.493Z,35.17
2022-11-14T08:58:47.325Z,34.27
2022-11-14T09:01:17.178Z,34.37
2022-11-14T09:03:44.162Z,33.50
2022-11-14T09:06:11.218Z,31.33
2022-11-14T09:08:38.095Z,34.53
2022-11-14T09:11:09.235Z,35.27
2022-11-14T09:13:36.830Z,32.30
2022-11-14T09:16:08.594Z,34.53
2022-11-14T09:18:37.816Z,35.43
2022-11-14T09:21:12.524Z,34.20
2022-11-14T09:23:39.460Z,33.97
2022-11-14T09:26:08.896Z,33.77
2022-11-14T09:28:36.896Z,32.83
2022-11-14T09:31:07.522Z,33.47
2022-11-14T09:33:35.478Z,35.10
2022-11-14T09:36:08.589Z,37.10
2022-11-14T09:38:40.039Z,36.43
2022-11-14T09:41:40.247Z,35.30
2022-11-14T09:44:39.258Z,35.77
2022-11-14T09:47:21.009Z,35.17
2022-11-14T09:49:51.770Z,33.40
2022-11-14T09:52:48.038Z,32.53
2022-11-14T09:55:21.961Z,33.83
2022-11-14T09:57:48.990Z,33.00
2022-11-14T10:00:23.343Z,30.90
2022-11-14T10:03:25.331Z,33.60
2022-11-14T10:06:32.734Z,32.50
2022-11-14T10:09:30.778Z,32.70
2022-11-14T10:12:15.590Z,31.13
2022-11-14T10:14:58.527Z,30.63
2022-11-14T10:17:56.091Z,29.37
2022-11-14T10:20:51.059Z,31.40
2022-11-14T10:24:15.377Z,31.77
2022-11-14T10:27:42.043Z,31.70
2022-11-14T10:30:19.440Z,31.13
2022-11-14T10:32:55.211Z,31.83
2022-11-14T10:35:48.067Z,31.87
2022-11-14T10:38:48.585Z,29.90
2022-11-14T10:41:34.669Z,30.97
2022-11-14T10:44:19.036Z,29.17
2022-11-14T10:46:51.351Z,30.33
2022-11-14T10:49:26.118Z,30.47
2022-11-14T10:51:59.061Z,28.67
2022-11-14T10:54:44.088Z,28.73
2022-11-14T10:57:22.543Z,28.57
2022-11-14T10:59:52.847Z,27.53
2022-11-14T11:02:19.778Z,28.83
2022-11-14T11:04:46.746Z,31.03
2022-11-14T11:07:40.348Z,26.93
2022-11-14T11:10:40.139Z,26.83
2022-11-14T11:13:12.599Z,28.30
2022-11-14T11:15:45.927Z,27.43
2022-11-14T11:18:29.189Z,27.40
2022-11-14T11:21:08.333Z,27.20
2022-11-14T11:23:47.593Z,27.77
2022-11-14T11:26:28.377Z,26.63
2022-11-14T11:29:23.680Z,27.43
2022-11-14T11:31:58.600Z,26.23
2022-11-14T11:34:32.737Z,26.30
2022-11-14T11:37:16.053Z,26.50
2022-11-14T11:39:53.020Z,28.37
2022-11-14T11:43:37.328Z,28.63
2022-11-14T11:45:53.480Z,27.13
2022-11-14T11:48:26.443Z,26.63
2022-11-14T11:50:53.698Z,24.80
2022-11-14T11:53:39.254Z,25.40
2022-11-14T11:56:13.305Z,26.90
2022-11-14T11:58:48.525Z,27.07
2022-11-14T12:01:19.669Z,27.60
2022-11-14T12:03:54.501Z,27.73
2022-11-14T12:06:28.511Z,27.20
2022-11-14T12:09:15.189Z,27.03
2022-11-14T12:12:04.795Z,27.00
2022-11-14T12:14:55.499Z,26.60
2022-11-14T12:17:34.239Z,26.30
2022-11-14T12:20:32.063Z,26.50
2022-11-14T12:23:25.777Z,24.67
2022-11-14T12:26:20.289Z,25.73
2022-11-14T12:29:46.252Z,27.23
2022-11-14T12:32:30.427Z,25.97
2022-11-14T12:35:03.796Z,26.90
2022-11-14T12:37:40.409Z,25.53
2022-11-14T12:40:42.409Z,25.03
2022-11-14T12:43:36.482Z,27.20
2022-11-14T12:46:09.224Z,26.60
2022-11-14T12:48:41.411Z,25.60
2022-11-14T12:51:28.501Z,25.60
2022-11-14T12:53:59.278Z,26.03
2022-11-14T12:56:32.217Z,25.63
2022-11-14T12:59:22.845Z,26.13
2022-11-14T13:01:52.566Z,25.83
2022-11-14T13:04:42.507Z,26.27
2022-11-14T13:07:33.851Z,25.47
2022-11-14T13:10:34.810Z,26.10
2022-11-14T13:13:33.811Z,26.87
2022-11-14T13:16:34.634Z,24.27
2022-11-14T13:19:38.583Z,24.37
2022-11-14T13:22:11.540Z,27.57
2022-11-14T13:25:02.353Z,27.40
2022-11-14T13:28:05.130Z,25.80
2022-11-14T13:31:18.458Z,27.17
2022-11-14T13:34:04.162Z,27.47
2022-11-14T13:36:44.136Z,25.80
2022-11-14T13:39:34.830Z,26.97
2022-11-14T13:42:41.564Z,25.97
2022-11-14T13:45:41.472Z,27.27
2022-11-14T13:48:29.011Z,26.43
2022-11-14T13:51:28.521Z,25.57
2022-11-14T13:53:54.950Z,26.40
2022-11-14T13:57:07.422Z,25.70
2022-11-14T13:59:46.497Z,25.80
2022-11-14T14:02:21.251Z,25.90
2022-11-14T14:05:21.861Z,24.87
2022-11-14T14:08:28.028Z,27.30
2022-11-14T14:11:16.420Z,24.73
2022-11-14T14:14:17.261Z,27.33
2022-11-14T14:17:02.694Z,25.50
2022-11-14T14:19:41.090Z,26.43
2022-11-14T14:22:32.765Z,28.10
2022-11-14T14:25:29.227Z,25.00
2022-11-14T14:28:20.290Z,26.63
2022-11-14T14:31:02.590Z,25.30
2022-11-14T14:33:44.156Z,24.80
2022-11-14T14:36:28.049Z,24.93
2022-11-14T14:39:18.577Z,25.13
2022-11-14T14:41:48.291Z,27.20
2022-11-14T14:44:33.700Z,24.77
2022-11-14T14:47:24.514Z,25.07
2022-11-14T14:49:53.485Z,23.93
2022-11-14T14:52:35.979Z,25.40
2022-11-14T14:55:06.586Z,25.33
2022-11-14T14:57:33.494Z,26.10
2022-11-14T15:00:01.999Z,24.83
2022-11-14T15:02:30.010Z,24.90
2022-11-14T15:05:00.531Z,24.77
2022-11-14T15:07:29.847Z,25.83
2022-11-14T15:10:03.952Z,26.30
2022-11-14T15:12:32.503Z,26.80
2022-11-14T15:15:00.968Z,25.90
2022-11-14T15:17:34.545Z,24.50
2022-11-14T15:20:03.114Z,25.97
2022-11-14T15:22:32.693Z,26.87
2022-11-14T15:25:15.019Z,25.70
2022-11-14T15:27:54.194Z,27.23
2022-11-14T15:30:30.798Z,27.03
2022-11-14T15:33:05.776Z,26.37
2022-11-14T15:35:35.928Z,27.70
2022-11-14T15:41:19.135Z,26.67
2022-11-14T15:43:53.289Z,26.00
2022-11-14T15:46:29.279Z,25.83
2022-11-14T15:48:56.360Z,26.90
2022-11-14T15:52:00.725Z,27.40
2022-11-14T15:54:33.310Z,25.33
2022-11-14T15:57:14.404Z,27.43
2022-11-14T15:59:43.604Z,26.63
2022-11-14T16:02:21.973Z,27.37
2022-11-14T16:04:52.034Z,26.93
2022-11-14T16:07:19.271Z,25.60
2022-11-14T16:09:49.133Z,26.97
2022-11-14T16:12:16.192Z,25.80
2022-11-14T16:14:45.658Z,26.70
2022-11-14T16:17:17.587Z,26.17
2022-11-14T16:19:45.007Z,26.97
2022-11-14T16:22:20.182Z,27.70
2022-11-14T16:24:49.489Z,27.27
2022-11-14T16:27:16.299Z,27.43
2022-11-14T16:29:46.206Z,26.80
2022-11-14T16:32:13.217Z,29.23
2022-11-14T16:34:42.223Z,27.80
2022-11-14T16:37:13.555Z,28.17
2022-11-14T16:39:43.189Z,28.10
2022-11-14T16:42:11.305Z,27.90
2022-11-14T16:44:42.933Z,28.27
2022-11-14T16:47:22.926Z,29.00
2022-11-14T16:49:58.852Z,28.60
2022-11-14T16:52:28.714Z,26.67
2022-11-14T16:54:56.060Z,27.73
2022-11-14T16:57:29.637Z,29.37
2022-11-14T16:59:58.966Z,30.07
2022-11-14T17:02:26.276Z,28.47
2022-11-14T17:04:53.133Z,27.80
2022-11-14T17:07:23.094Z,27.50
2022-11-14T17:09:50.119Z,27.83
2022-11-14T17:12:17.029Z,28.20
2022-11-14T17:14:43.935Z,28.50
2022-11-14T17:17:10.828Z,27.43
2022-11-14T17:19:45.552Z,29.27
2022-11-14T17:22:13.937Z,28.80
2022-11-14T17:24:43.979Z,27.97
2022-11-14T17:27:12.865Z,28.30
2022-11-14T17:29:42.389Z,27.43
2022-11-14T17:32:09.286Z,29.47
2022-11-14T17:34:36.189Z,28.90
2022-11-14T17:37:03.171Z,28.43
2022-11-14T17:39:35.037Z,29.30
2022-11-14T17:42:02.035Z,28.13
2022-11-14T17:44:32.076Z,26.10
2022-11-14T17:46:58.963Z,28.47
2022-11-14T17:49:28.154Z,27.60
2022-11-14T17:51:55.065Z,27.80
2022-11-14T17:54:22.000Z,27.43
2022-11-14T17:56:54.652Z,28.47
2022-11-14T17:59:22.172Z,28.03
2022-11-14T18:01:54.542Z,27.13
2022-11-14T18:04:24.543Z,27.27
2022-11-14T18:06:51.910Z,29.37
2022-11-14T18:09:18.882Z,28.17
2022-11-14T18:11:48.740Z,28.30
2022-11-14T18:14:22.697Z,28.57
2022-11-14T18:17:11.859Z,27.97
2022-11-14T18:19:38.674Z,27.87
2022-11-14T18:22:05.587Z,29.40
2022-11-14T18:24:32.528Z,28.30
2022-11-14T18:26:59.430Z,30.03
2022-11-14T18:29:28.341Z,27.17
2022-11-14T18:31:55.175Z,29.13
2022-11-14T18:34:22.113Z,29.43
2022-11-14T18:36:49.078Z,28.47
2022-11-14T18:39:20.481Z,28.30
2022-11-14T18:41:47.376Z,29.33
2022-11-14T18:44:21.080Z,27.83
2022-11-14T18:46:47.950Z,26.97
2022-11-14T18:49:14.872Z,28.60
2022-11-14T18:51:42.064Z,26.93
2022-11-14T18:54:18.864Z,27.17
2022-11-14T18:56:48.321Z,28.50
2022-11-14T18:59:18.308Z,28.80
2022-11-14T19:01:47.728Z,28.40
2022-11-14T19:04:17.301Z,28.60
2022-11-14T19:06:44.301Z,29.37
2022-11-14T19:09:16.059Z,28.70
2022-11-14T19:12:02.534Z,29.57
2022-11-14T19:14:29.484Z,29.50
2022-11-14T19:16:59.550Z,29.10
2022-11-14T19:19:29.116Z,29.90
2022-11-14T19:21:58.597Z,28.60
2022-11-14T19:24:25.479Z,28.60
2022-11-14T19:26:52.421Z,28.10
2022-11-14T19:29:23.849Z,28.67
2022-11-14T19:31:50.750Z,28.43
2022-11-14T19:34:20.610Z,28.77
2022-11-14T19:36:59.871Z,29.00
2022-11-14T19:39:33.313Z,29.40
2022-11-14T19:42:04.783Z,28.20
2022-11-14T19:44:32.025Z,28.23
2022-11-14T19:46:58.966Z,30.10
2022-11-14T19:49:25.878Z,30.20
2022-11-14T19:51:55.785Z,31.30
2022-11-14T19:54:22.676Z,28.90
2022-11-14T19:56:49.558Z,30.53
2022-11-14T19:59:21.365Z,29.53
2022-11-14T20:01:55.251Z,29.33
2022-11-14T20:04:23.034Z,30.13
2022-11-14T20:06:50.233Z,29.10
2022-11-14T20:09:19.765Z,30.40
2022-11-14T20:11:46.737Z,30.77
2022-11-14T20:14:13.746Z,28.70
2022-11-14T20:16:40.842Z,30.27
2022-11-14T20:19:08.015Z,30.20
2022-11-14T20:21:39.945Z,29.77
2022-11-14T20:24:10.685Z,29.50
2022-11-14T20:26:37.690Z,29.80
2022-11-14T20:29:06.862Z,31.00
2022-11-14T20:31:33.787Z,29.83
2022-11-14T20:34:00.852Z,30.47
2022-11-14T20:36:39.005Z,29.20
2022-11-14T20:39:20.116Z,30.67
2022-11-14T20:41:47.665Z,30.50
2022-11-14T20:44:14.729Z,29.40
2022-11-14T20:46:41.679Z,30.27
2022-11-14T20:49:11.078Z,30.57
2022-11-14T20:51:38.112Z,31.03
2022-11-14T20:54:05.166Z,30.77
2022-11-14T20:56:32.151Z,30.07
2022-11-14T20:59:02.082Z,31.23
2022-11-14T21:01:29.010Z,31.53
2022-11-14T21:03:55.926Z,31.93
2022-11-14T21:06:27.287Z,29.37
2022-11-14T21:08:57.171Z,29.30
2022-11-14T21:11:24.037Z,28.43
2022-11-14T21:13:59.329Z,29.00
2022-11-14T21:16:31.934Z,31.60
2022-11-14T21:19:03.267Z,31.33
2022-11-14T21:21:33.917Z,31.30
2022-11-14T21:24:04.082Z,29.20
2022-11-14T21:26:34.650Z,29.87
2022-11-14T21:29:09.026Z,29.60
2022-11-14T21:31:42.187Z,29.53
2022-11-14T21:34:15.090Z,30.30
2022-11-14T21:36:46.384Z,30.00
2022-11-14T21:39:16.504Z,28.80
2022-11-14T21:41:48.400Z,29.30
2022-11-14T21:44:17.025Z,28.93
2022-11-14T21:46:47.226Z,28.97
2022-11-14T21:49:14.463Z,28.13
2022-11-14T21:51:41.441Z,26.57
2022-11-14T21:54:11.511Z,29.03
2022-11-14T21:56:40.492Z,27.07
2022-11-14T21:59:21.295Z,29.10
2022-11-14T22:02:11.168Z,29.50
2022-11-14T22:04:41.224Z,28.93
2022-11-14T22:07:08.648Z,25.90
2022-11-14T22:09:38.713Z,28.63
2022-11-14T22:12:08.269Z,27.60
2022-11-14T22:14:35.116Z,27.23
2022-11-14T22:17:01.992Z,27.67
2022-11-14T22:19:28.827Z,27.00
2022-11-14T22:21:55.935Z,27.10
2022-11-14T22:24:25.381Z,28.77
2022-11-14T22:26:52.311Z,27.73
2022-11-14T22:29:19.186Z,28.30
2022-11-14T22:31:46.263Z,27.70
2022-11-14T22:34:13.346Z,27.20
2022-11-14T22:36:40.277Z,28.80
2022-11-14T22:39:07.139Z,26.93
2022-11-14T22:41:34.156Z,28.37
2022-11-14T22:44:01.657Z,28.80
2022-11-14T22:46:32.172Z,28.13
2022-11-14T22:48:59.298Z,28.37
2022-11-14T22:51:28.000Z,26.70
2022-11-14T22:53:58.464Z,27.13
2022-11-14T22:56:28.917Z,27.43
2022-11-14T22:58:58.835Z,27.23
2022-11-14T23:01:31.661Z,28.00
2022-11-14T23:04:04.809Z,27.57
2022-11-14T23:06:34.241Z,28.47
2022-11-14T23:09:02.791Z,27.23
2022-11-14T23:11:31.585Z,25.10
2022-11-14T23:14:00.543Z,27.47
2022-11-14T23:16:31.254Z,27.10
2022-11-14T23:19:02.836Z,26.33
2022-11-14T23:21:37.030Z,28.40
2022-11-14T23:24:08.637Z,26.77
2022-11-14T23:26:35.548Z,25.83
2022-11-14T23:29:05.317Z,26.07
2022-11-14T23:31:34.691Z,27.73
2022-11-14T23:34:01.588Z,27.50
2022-11-14T23:36:29.280Z,27.13
2022-11-14T23:38:56.298Z,27.00
2022-11-14T23:41:27.918Z,27.10
2022-11-14T23:43:54.779Z,26.63
2022-11-14T23:46:21.717Z,26.13
2022-11-14T23:48:51.291Z,27.80
2022-11-14T23:51:20.764Z,28.17
2022-11-14T23:53:50.638Z,25.27
2022-11-14T23:56:17.563Z,27.20
2022-11-14T23:58:49.118Z,26.27
